Time;durP1;ratioP1;P1;durP2;ratioP2;P2;SDS_P1;SDS_P2;PMS_P1;PMS_P2;Temp;Humidity;BMP_temperature;BMP_pressure;BME280_temperature;BME280_humidity;BME280_pressure;Samples;Min_cycle;Max_cycle;Signal;HPM_P1;HPM_P2
2022/05/10 00:02:12;;;;;;;14.70;11.07;;;;;;;-139.48;100.00;61774.03;5013650;28;20091;-71
2022/05/10 00:04:57;;;;;;;13.65;11.45;;;;;;;-139.48;100.00;61774.03;5014544;28;20052;-72
2022/05/10 00:07:40;;;;;;;13.88;12.07;;;;;;;-139.48;100.00;61774.03;5013998;28;20061;-72
2022/05/10 00:10:25;;;;;;;14.13;11.02;;;;;;;-139.48;100.00;61774.03;5013747;28;20052;-72
2022/05/10 00:13:08;;;;;;;15.82;12.60;;;;;;;-139.48;100.00;61774.03;5014387;28;20092;-71
2022/05/10 00:15:53;;;;;;;13.23;11.10;;;;;;;-139.48;100.00;61774.03;5013956;28;20088;-72
2022/05/10 00:18:37;;;;;;;13.90;11.38;;;;;;;-139.48;100.00;61774.03;5013842;28;20068;-72
2022/05/10 00:21:23;;;;;;;18.50;11.27;;;;;;;-139.48;100.00;61774.03;4999855;28;20052;-72
2022/05/10 00:24:07;;;;;;;12.57;10.75;;;;;;;-139.48;100.00;61774.03;5013201;28;20057;-72
2022/05/10 00:26:52;;;;;;;12.57;11.07;;;;;;;-139.48;100.00;61774.03;5013518;28;20049;-71
2022/05/10 00:29:36;;;;;;;14.95;11.02;;;;;;;-139.48;100.00;61774.03;5013322;28;20436;-72
2022/05/10 00:32:29;;;;;;;17.15;11.25;;;;;;;-139.48;100.00;61774.03;5014103;28;20081;-72
2022/05/10 00:35:16;;;;;;;12.70;11.40;;;;;;;-139.48;100.00;61774.03;5013280;28;20104;-72
2022/05/10 00:38:03;;;;;;;15.00;11.52;;;;;;;-139.48;100.00;61774.03;4999170;28;20056;-71
2022/05/10 00:40:47;;;;;;;17.55;11.73;;;;;;;-139.48;100.00;61774.03;5013298;28;20524;-72
2022/05/10 00:43:35;;;;;;;15.27;11.55;;;;;;;-139.48;100.00;61774.03;5013104;28;20509;-71
2022/05/10 00:46:24;;;;;;;18.40;12.48;;;;;;;-139.48;100.00;61774.03;4999551;28;20127;-72
2022/05/10 00:49:20;;;;;;;14.07;12.57;;;;;;;-139.48;100.00;61774.03;4999225;28;20134;-72
2022/05/10 00:52:18;;;;;;;14.55;12.68;;;;;;;-139.48;100.00;61774.03;5013371;28;20504;-71
2022/05/10 00:55:12;;;;;;;14.35;12.85;;;;;;;-139.48;100.00;61774.03;5012272;28;20525;-71
2022/05/10 00:58:01;;;;;;;14.02;12.43;;;;;;;-139.48;100.00;61774.03;5013056;28;20171;-71
2022/05/10 01:00:45;;;;;;;16.75;13.20;;;;;;;-139.48;100.00;61774.03;5012738;28;20045;-71
2022/05/10 01:03:42;;;;;;;17.10;12.88;;;;;;;-139.48;100.00;61774.03;5012813;28;20409;-71
2022/05/10 01:06:31;;;;;;;15.55;12.85;;;;;;;-139.48;100.00;61774.03;5012669;28;20053;-71
2022/05/10 01:09:39;;;;;;;13.60;12.15;;;;;;;-139.48;100.00;61774.03;4998734;28;20137;-71
2022/05/10 01:12:35;;;;;;;15.55;13.10;;;;;;;-139.48;100.00;61774.03;5012861;28;20690;-71
2022/05/10 01:15:23;;;;;;;15.38;12.45;;;;;;;-139.48;100.00;61774.03;5014068;28;20044;-71
2022/05/10 01:18:07;;;;;;;14.07;11.93;;;;;;;-139.48;100.00;61774.03;5012487;28;20044;-71
2022/05/10 01:20:54;;;;;;;13.98;12.43;;;;;;;-139.48;100.00;61774.03;5013509;28;20069;-72
2022/05/10 01:23:48;;;;;;;18.45;14.40;;;;;;;-139.48;100.00;61774.03;5034823;22;20134;-71
2022/05/10 01:26:45;;;;;;;14.53;13.03;;;;;;;-139.48;100.00;61774.03;5013978;28;20057;-70
2022/05/10 01:29:37;;;;;;;15.88;13.60;;;;;;;-139.48;100.00;61774.03;5013604;28;20037;-70
2022/05/10 01:35:31;;;;;;;15.50;12.80;;;;;;;-139.48;100.00;61774.03;5012528;28;20081;-70
2022/05/10 01:38:25;;;;;;;19.00;13.73;;;;;;;-139.48;100.00;61774.03;4998741;28;20053;-71
2022/05/10 01:41:18;;;;;;;;;;;;;;;-139.48;100.00;61774.03;5012677;28;20049;-70
2022/05/10 01:44:18;;;;;;;17.73;13.27;;;;;;;-139.48;100.00;61774.03;5013431;28;20301;-70
2022/05/10 01:47:10;;;;;;;16.92;13.55;;;;;;;-139.48;100.00;61774.03;5013230;28;20080;-70
2022/05/10 01:50:05;;;;;;;14.32;12.82;;;;;;;-139.48;100.00;61774.03;5012714;28;20045;-70
2022/05/10 01:53:04;;;;;;;16.60;13.02;;;;;;;-139.48;100.00;61774.03;5013189;28;20060;-71
2022/05/10 01:55:51;;;;;;;15.35;13.48;;;;;;;-139.48;100.00;61774.03;5012181;28;20181;-70
2022/05/10 01:58:36;;;;;;;21.42;12.82;;;;;;;-139.48;100.00;61774.03;4998454;28;20048;-69
2022/05/10 02:01:27;;;;;;;15.32;13.23;;;;;;;-139.48;100.00;61774.03;5012245;28;20111;-70
2022/05/10 02:04:15;;;;;;;16.10;13.50;;;;;;;-139.48;100.00;61774.03;5012282;28;20057;-70
2022/05/10 02:07:21;;;;;;;16.13;12.75;;;;;;;-139.48;100.00;61774.03;5014419;28;20084;-69
2022/05/10 02:10:09;;;;;;;18.45;13.25;;;;;;;-139.48;100.00;61774.03;5016032;28;20173;-70
2022/05/10 02:13:09;;;;;;;17.00;13.20;;;;;;;-139.48;100.00;61774.03;5002367;28;20129;-69
2022/05/10 02:15:57;;;;;;;16.17;12.82;;;;;;;-139.48;100.00;61774.03;5015877;28;20406;-70
2022/05/10 02:18:49;;;;;;;14.90;12.80;;;;;;;-139.48;100.00;61774.03;5001861;28;20417;-70
2022/05/10 02:21:39;;;;;;;15.02;13.20;;;;;;;-139.48;100.00;61774.03;5002092;28;20080;-69
2022/05/10 02:24:35;;;;;;;14.20;12.57;;;;;;;-139.48;100.00;61774.03;5015688;28;20082;-69
2022/05/10 02:27:32;;;;;;;15.90;13.43;;;;;;;-139.48;100.00;61774.03;5015444;28;20048;-69
2022/05/10 02:30:19;;;;;;;13.40;11.52;;;;;;;-139.48;100.00;61774.03;5001832;28;20070;-70
2022/05/10 02:33:06;;;;;;;15.65;13.40;;;;;;;-139.48;100.00;61774.03;5001517;28;20080;-70
2022/05/10 02:35:56;;;;;;;17.38;13.70;;;;;;;-139.48;100.00;61774.03;5015516;28;20131;-69
2022/05/10 02:38:40;;;;;;;18.80;12.82;;;;;;;-139.48;100.00;61774.03;5015190;28;20052;-69
2022/05/10 02:41:24;;;;;;;14.80;12.93;;;;;;;-139.48;100.00;61774.03;5001639;28;20053;-70
2022/05/10 02:44:08;;;;;;;14.68;12.75;;;;;;;-139.48;100.00;61774.03;5015140;28;20049;-70
2022/05/10 02:46:52;;;;;;;14.27;12.73;;;;;;;-139.48;100.00;61774.03;5001488;28;20048;-70
2022/05/10 02:49:37;;;;;;;15.27;12.80;;;;;;;-139.48;100.00;61774.03;5001498;28;20457;-70
2022/05/10 02:52:21;;;;;;;17.13;13.02;;;;;;;-139.48;100.00;61774.03;5015141;28;20137;-70
2022/05/10 02:55:19;;;;;;;19.15;14.13;;;;;;;-139.48;100.00;61774.03;5016140;28;20049;-70
2022/05/10 02:58:15;;;;;;;15.65;12.27;;;;;;;-139.48;100.00;61774.03;5015084;28;20508;-69
2022/05/10 03:01:06;;;;;;;19.23;13.23;;;;;;;-139.48;100.00;61774.03;5015056;28;20049;-70
2022/05/10 03:03:51;;;;;;;17.23;12.98;;;;;;;-139.48;100.00;61774.03;5001126;28;20052;-70
2022/05/10 03:06:38;;;;;;;18.70;14.00;;;;;;;-139.48;100.00;61774.03;5015024;28;20053;-70
2022/05/10 03:09:22;;;;;;;15.10;12.43;;;;;;;-139.48;100.00;61774.03;5016066;28;20052;-70
2022/05/10 03:12:08;;;;;;;16.83;13.57;;;;;;;-139.48;100.00;61774.03;5014719;28;20049;-70
2022/05/10 03:14:55;;;;;;;16.42;13.50;;;;;;;-139.48;100.00;61774.03;5014775;28;20052;-70
2022/05/10 03:17:39;;;;;;;19.63;13.85;;;;;;;-139.48;100.00;61774.03;5014192;28;21963;-70
2022/05/10 03:20:22;;;;;;;14.85;12.55;;;;;;;-139.48;100.00;61774.03;5014975;28;20080;-70
2022/05/10 03:23:07;;;;;;;19.77;14.15;;;;;;;-139.48;100.00;61774.03;5015722;28;20048;-70
2022/05/10 03:25:51;;;;;;;14.57;13.05;;;;;;;-139.48;100.00;61774.03;5014613;28;20141;-69
2022/05/10 03:28:35;;;;;;;17.38;14.18;;;;;;;-139.48;100.00;61774.03;5014349;28;20048;-69
2022/05/10 03:31:20;;;;;;;19.25;13.45;;;;;;;-139.48;100.00;61774.03;5014542;28;20469;-69
2022/05/10 03:37:07;;;;;;;14.70;13.18;;;;;;;-139.48;100.00;61774.03;5014337;28;20616;-70
2022/05/10 03:39:50;;;;;;;18.48;14.40;;;;;;;-139.48;100.00;61774.03;5014447;28;20092;-69
2022/05/10 03:42:42;;;;;;;15.48;13.50;;;;;;;-139.48;100.00;61774.03;5014407;28;20060;-70
2022/05/10 03:45:26;;;;;;;18.65;13.25;;;;;;;-139.48;100.00;61774.03;5000459;28;20048;-69
2022/05/10 03:48:10;;;;;;;16.92;13.45;;;;;;;-139.48;100.00;61774.03;5015228;28;20076;-69
2022/05/10 03:50:54;;;;;;;16.15;13.52;;;;;;;-139.48;100.00;61774.03;5014160;28;20049;-69
2022/05/10 03:53:38;;;;;;;16.60;12.95;;;;;;;-139.48;100.00;61774.03;5013837;28;20410;-71
2022/05/10 03:56:22;;;;;;;16.67;13.60;;;;;;;-139.48;100.00;61774.03;5000264;28;20129;-70
2022/05/10 03:59:06;;;;;;;17.52;13.32;;;;;;;-139.48;100.00;61774.03;5013714;28;20053;-69
2022/05/10 04:01:50;;;;;;;15.70;13.45;;;;;;;-139.48;100.00;61774.03;5013733;28;20057;-70
2022/05/10 04:04:34;;;;;;;15.65;13.77;;;;;;;-139.48;100.00;61774.03;5013848;28;20048;-70
2022/05/10 04:07:18;;;;;;;16.15;13.30;;;;;;;-139.48;100.00;61774.03;5013670;28;20067;-70
2022/05/10 04:10:02;;;;;;;18.45;14.27;;;;;;;-139.48;100.00;61774.03;5013654;28;20040;-70
2022/05/10 04:12:46;;;;;;;17.95;13.45;;;;;;;-139.48;100.00;61774.03;5013777;28;20505;-69
2022/05/10 04:15:30;;;;;;;17.95;13.77;;;;;;;-139.48;100.00;61774.03;5014631;28;20056;-69
2022/05/10 04:18:14;;;;;;;18.27;13.75;;;;;;;-139.48;100.00;61774.03;5013566;28;20049;-69
2022/05/10 04:20:58;;;;;;;15.65;13.10;;;;;;;-139.48;100.00;61774.03;5014652;28;20057;-69
2022/05/10 04:23:42;;;;;;;16.38;13.98;;;;;;;-139.48;100.00;61774.03;5014338;28;20107;-69
2022/05/10 04:26:27;;;;;;;18.38;13.40;;;;;;;-139.48;100.00;61774.03;5013277;28;20088;-70
2022/05/10 04:29:11;;;;;;;15.25;13.32;;;;;;;-139.48;100.00;61774.03;5013706;28;20056;-69
2022/05/10 04:31:55;;;;;;;15.73;13.75;;;;;;;-139.48;100.00;61774.03;4999685;28;20056;-69
2022/05/10 04:34:39;;;;;;;16.85;13.27;;;;;;;-139.48;100.00;61774.03;5013166;28;20056;-70
2022/05/10 04:37:23;;;;;;;14.70;12.82;;;;;;;-139.48;100.00;61774.03;4999427;28;20084;-70
2022/05/10 04:43:10;;;;;;;16.10;13.40;;;;;;;-139.48;100.00;61774.03;5013499;28;20479;-69
2022/05/10 04:45:53;;;;;;;19.00;12.80;;;;;;;-139.48;100.00;61774.03;5013052;28;20049;-70
2022/05/10 04:48:37;;;;;;;20.70;14.45;;;;;;;-139.48;100.00;61774.03;5013218;28;20409;-70
2022/05/10 04:51:21;;;;;;;18.58;14.05;;;;;;;-139.48;100.00;61774.03;5012859;28;20056;-70
2022/05/10 04:54:07;;;;;;;18.02;13.77;;;;;;;-139.48;100.00;61774.03;4999118;28;20133;-70
2022/05/10 04:56:50;;;;;;;17.42;14.13;;;;;;;-139.48;100.00;61774.03;5013224;28;20056;-70
2022/05/10 04:59:34;;;;;;;17.23;13.95;;;;;;;-139.48;100.00;61774.03;5012688;28;20517;-70
2022/05/10 05:02:18;;;;;;;16.05;13.70;;;;;;;-139.48;100.00;61774.03;4999152;28;20112;-70
2022/05/10 05:05:03;;;;;;;15.82;13.05;;;;;;;-139.48;100.00;61774.03;5012615;28;20049;-70
2022/05/10 05:07:47;;;;;;;19.20;12.95;;;;;;;-139.48;100.00;61774.03;5012944;28;20049;-69
2022/05/10 05:10:31;;;;;;;16.10;13.48;;;;;;;-139.48;100.00;61774.03;4998966;28;20052;-69
2022/05/10 05:13:16;;;;;;;15.00;12.85;;;;;;;-139.48;100.00;61774.03;5013530;28;20099;-69
2022/05/10 05:16:00;;;;;;;19.13;14.40;;;;;;;-139.48;100.00;61774.03;5012817;28;20525;-69
2022/05/10 05:18:44;;;;;;;;;;;;;;;-139.48;100.00;61774.03;5013091;28;20165;-70
2022/05/10 05:21:28;;;;;;;16.58;13.95;;;;;;;-139.48;100.00;61774.03;5012710;28;19925;-70
2022/05/10 05:24:13;;;;;;;15.80;14.20;;;;;;;-139.48;100.00;61774.03;5012293;28;20115;-70
2022/05/10 05:26:58;;;;;;;19.52;15.90;;;;;;;-139.48;100.00;61774.03;5012688;28;20200;-70
2022/05/10 05:29:41;;;;;;;20.83;16.50;;;;;;;-139.48;100.00;61774.03;5012688;28;20461;-70
2022/05/10 05:32:31;;;;;;;19.63;16.95;;;;;;;-139.48;100.00;61774.03;5013904;28;20458;-70
2022/05/10 05:35:15;;;;;;;20.10;16.75;;;;;;;-139.48;100.00;61774.03;4998433;28;20080;-70
2022/05/10 05:37:59;;;;;;;20.25;17.98;;;;;;;-139.48;100.00;61774.03;5012279;28;20092;-70
2022/05/10 05:40:43;;;;;;;22.10;17.80;;;;;;;-139.48;100.00;61774.03;5014321;28;20052;-70
2022/05/10 05:43:27;;;;;;;21.00;17.45;;;;;;;-139.48;100.00;61774.03;5016777;28;20123;-70
2022/05/10 05:46:11;;;;;;;21.52;17.58;;;;;;;-139.48;100.00;61774.03;5016237;28;20057;-71
2022/05/10 05:48:58;;;;;;;21.75;16.95;;;;;;;-139.48;100.00;61774.03;5002525;28;20048;-69
2022/05/10 05:51:42;;;;;;;18.55;15.48;;;;;;;-139.48;100.00;61774.03;5016408;28;20405;-71
2022/05/10 05:54:26;;;;;;;22.25;16.92;;;;;;;-139.48;100.00;61774.03;5016305;28;20061;-71
2022/05/10 05:57:10;;;;;;;20.55;16.23;;;;;;;-139.48;100.00;61774.03;5016060;28;20080;-69
2022/05/10 05:59:55;;;;;;;24.20;16.90;;;;;;;-139.48;100.00;61774.03;5016304;28;20040;-69
2022/05/10 06:02:41;;;;;;;20.10;16.42;;;;;;;-139.48;100.00;61774.03;5002336;28;20418;-70
2022/05/10 06:05:27;;;;;;;20.13;15.85;;;;;;;-139.48;100.00;61774.03;5001957;28;20048;-70
2022/05/10 06:08:11;;;;;;;20.23;15.60;;;;;;;-139.48;100.00;61774.03;5015874;28;20049;-71
2022/05/10 06:10:57;;;;;;;21.73;17.05;;;;;;;-139.48;100.00;61774.03;5016061;28;20132;-71
2022/05/10 06:13:41;;;;;;;24.17;16.90;;;;;;;-139.48;100.00;61774.03;5016869;28;20048;-70
2022/05/10 06:16:25;;;;;;;21.70;16.73;;;;;;;-139.48;100.00;61774.03;5016691;28;20056;-70
2022/05/10 06:19:10;;;;;;;21.40;15.18;;;;;;;-139.48;100.00;61774.03;5015857;28;20505;-70
2022/05/10 06:21:55;;;;;;;20.63;16.23;;;;;;;-139.48;100.00;61774.03;5015667;28;20103;-70
2022/05/10 06:24:39;;;;;;;22.75;17.23;;;;;;;-139.48;100.00;61774.03;5016371;28;20049;-70
2022/05/10 06:27:23;;;;;;;23.30;16.08;;;;;;;-139.48;100.00;61774.03;5016001;28;20057;-70
2022/05/10 06:30:08;;;;;;;22.27;15.95;;;;;;;-139.48;100.00;61774.03;5001916;28;20065;-70
2022/05/10 06:32:55;;;;;;;21.58;16.80;;;;;;;-139.48;100.00;61774.03;5016362;28;20552;-70
2022/05/10 06:35:40;;;;;;;22.35;17.58;;;;;;;-139.48;100.00;61774.03;5001468;28;20068;-70
2022/05/10 06:38:27;;;;;;;18.50;15.88;;;;;;;-139.48;100.00;61774.03;5016653;28;20147;-71
2022/05/10 06:41:11;;;;;;;22.65;17.17;;;;;;;-139.48;100.00;61774.03;5015300;28;20156;-71
2022/05/10 06:43:55;;;;;;;21.50;17.10;;;;;;;-139.48;100.00;61774.03;5015609;28;20064;-70
2022/05/10 06:46:39;;;;;;;21.15;15.73;;;;;;;-139.48;100.00;61774.03;5016424;28;20115;-70
2022/05/10 06:49:24;;;;;;;21.27;16.15;;;;;;;-139.48;100.00;61774.03;5015335;28;20172;-70
2022/05/10 06:52:08;;;;;;;18.75;16.02;;;;;;;-139.48;100.00;61774.03;5014533;28;20048;-70
2022/05/10 06:54:51;;;;;;;22.45;15.77;;;;;;;-139.48;100.00;61774.03;5014901;28;20069;-69
2022/05/10 06:57:35;;;;;;;23.35;16.67;;;;;;;-139.48;100.00;61774.03;5014929;28;20417;-70
2022/05/10 07:00:20;;;;;;;;;;;;;;;-139.48;100.00;61774.03;5016551;28;20096;-70
2022/05/10 07:03:12;;;;;;;19.85;15.25;;;;;;;-139.48;100.00;61774.03;5014858;28;19959;-70
2022/05/10 07:05:56;;;;;;;20.95;15.63;;;;;;;-139.48;100.00;61774.03;5014729;28;20044;-71
2022/05/10 07:08:40;;;;;;;19.65;16.52;;;;;;;-139.48;100.00;61774.03;5016002;28;20100;-70
2022/05/10 07:11:24;;;;;;;17.77;15.40;;;;;;;-139.48;100.00;61774.03;5016178;28;20049;-69
2022/05/10 07:14:08;;;;;;;19.98;16.35;;;;;;;-139.48;100.00;61774.03;5014698;28;20099;-70
2022/05/10 07:16:52;;;;;;;21.20;16.40;;;;;;;-139.48;100.00;61774.03;5014846;28;20462;-70
2022/05/10 07:19:36;;;;;;;21.20;16.88;;;;;;;-139.48;100.00;61774.03;5014759;28;20049;-70
2022/05/10 07:22:20;;;;;;;19.02;16.10;;;;;;;-139.48;100.00;61774.03;5015459;28;20054;-70
2022/05/10 07:25:05;;;;;;;20.58;15.63;;;;;;;-139.48;100.00;61774.03;5037724;22;20060;-73
2022/05/10 07:27:49;;;;;;;18.98;15.73;;;;;;;-139.48;100.00;61774.03;5000767;28;20052;-72
2022/05/10 07:30:33;;;;;;;17.10;14.68;;;;;;;-139.48;100.00;61774.03;5001005;28;20457;-72
2022/05/10 07:33:19;;;;;;;18.60;15.95;;;;;;;-139.48;100.00;61774.03;5014553;28;20164;-72
2022/05/10 07:39:08;;;;;;;18.75;14.85;;;;;;;-139.48;100.00;61774.03;5014956;28;20076;-72
2022/05/10 07:41:54;;;;;;;19.60;15.82;;;;;;;-139.48;100.00;61774.03;5014018;28;20049;-72
2022/05/10 07:44:38;;;;;;;17.20;15.05;;;;;;;-139.48;100.00;61774.03;5014167;28;20580;-72
2022/05/10 07:47:22;;;;;;;27.27;15.60;;;;;;;-139.48;100.00;61774.03;5015247;28;20045;-72
2022/05/10 07:50:08;;;;;;;20.50;15.48;;;;;;;-139.48;100.00;61774.03;5015164;28;20116;-72
2022/05/10 07:52:52;;;;;;;18.88;14.25;;;;;;;-139.48;100.00;61774.03;5000498;28;20144;-73
2022/05/10 07:55:36;;;;;;;17.15;14.65;;;;;;;-139.48;100.00;61774.03;5014013;28;20056;-72
2022/05/10 07:58:20;;;;;;;20.77;14.73;;;;;;;-139.48;100.00;61774.03;5013656;28;20052;-72
2022/05/10 08:01:05;;;;;;;22.17;15.95;;;;;;;-139.48;100.00;61774.03;5014737;28;20419;-73
2022/05/10 08:03:49;;;;;;;18.77;15.38;;;;;;;-139.48;100.00;61774.03;4999972;28;20136;-72
2022/05/10 08:06:33;;;;;;;18.27;15.20;;;;;;;-139.48;100.00;61774.03;5014616;28;20073;-72
2022/05/10 08:09:17;;;;;;;21.02;15.25;;;;;;;-139.48;100.00;61774.03;5013884;28;20133;-72
2022/05/10 08:12:01;;;;;;;20.25;15.00;;;;;;;-139.48;100.00;61774.03;5014447;28;20141;-72
2022/05/10 08:14:44;;;;;;;21.77;14.38;;;;;;;-139.48;100.00;61774.03;5014656;28;20572;-72
2022/05/10 08:17:28;;;;;;;17.70;14.45;;;;;;;-139.48;100.00;61774.03;5014631;28;20133;-72
2022/05/10 08:20:12;;;;;;;21.40;16.02;;;;;;;-139.48;100.00;61774.03;4999729;28;20096;-72
2022/05/10 08:22:56;;;;;;;18.98;16.05;;;;;;;-139.48;100.00;61774.03;5013566;28;20052;-72
2022/05/10 08:25:40;;;;;;;16.55;14.75;;;;;;;-139.48;100.00;61774.03;5014080;28;20183;-72
2022/05/10 08:28:25;;;;;;;19.08;15.57;;;;;;;-139.48;100.00;61774.03;5014464;28;20510;-71
2022/05/10 08:31:09;;;;;;;21.15;15.73;;;;;;;-139.48;100.00;61774.03;5013385;28;20049;-72
2022/05/10 08:33:53;;;;;;;17.23;14.88;;;;;;;-139.48;100.00;61774.03;5014183;28;20095;-72
2022/05/10 08:36:37;;;;;;;17.13;14.05;;;;;;;-139.48;100.00;61774.03;5013346;28;20052;-72
2022/05/10 08:39:22;;;;;;;18.92;14.85;;;;;;;-139.48;100.00;61774.03;5014237;28;20057;-72
2022/05/10 08:42:19;;;;;;;14.32;11.65;;;;;;;-139.48;100.00;61774.03;5013256;28;20061;-72
2022/05/10 08:45:05;;;;;;;15.95;13.77;;;;;;;-139.48;100.00;61774.03;5013130;28;20509;-72
2022/05/10 08:47:50;;;;;;;16.58;12.88;;;;;;;-139.48;100.00;61774.03;5013122;28;20089;-72
2022/05/10 08:50:36;;;;;;;15.65;14.05;;;;;;;-139.48;100.00;61774.03;5013357;28;20049;-73
2022/05/10 08:53:19;;;;;;;14.50;12.90;;;;;;;-139.48;100.00;61774.03;5014051;28;20053;-71
2022/05/10 08:56:14;;;;;;;15.65;12.70;;;;;;;-139.48;100.00;61774.03;5013738;28;20129;-72
2022/05/10 08:59:29;;;;;;;14.10;12.65;;;;;;;-139.48;100.00;61774.03;5012959;28;20052;-71
2022/05/10 09:02:18;;;;;;;;;;;;;;;-139.48;100.00;61774.03;5014083;28;20101;-72
2022/05/10 09:05:06;;;;;;;20.73;13.20;;;;;;;-139.48;100.00;61774.03;5013577;28;19927;-72
2022/05/10 09:08:11;;;;;;;16.65;13.45;;;;;;;-139.48;100.00;61774.03;5013850;28;20115;-72
2022/05/10 09:11:08;;;;;;;13.75;12.35;;;;;;;-139.48;100.00;61774.03;5013833;28;20104;-72
2022/05/10 09:13:52;;;;;;;16.25;11.98;;;;;;;-139.48;100.00;61774.03;5012992;28;20048;-72
2022/05/10 09:16:36;;;;;;;13.73;10.93;;;;;;;-139.48;100.00;61774.03;5012131;28;20056;-72
2022/05/10 09:19:25;;;;;;;12.43;11.13;;;;;;;-139.48;100.00;61774.03;5013408;28;20049;-72
2022/05/10 09:22:26;;;;;;;15.93;10.13;;;;;;;-139.48;100.00;61774.03;5012512;28;20050;-72
2022/05/10 09:25:38;;;;;;;10.90;9.80;;;;;;;-139.48;100.00;61774.03;5012321;28;20041;-72
2022/05/10 09:28:29;;;;;;;14.13;10.45;;;;;;;-139.48;100.00;61774.03;5012718;28;20041;-72
2022/05/10 09:34:47;;;;;;;12.05;9.70;;;;;;;-139.48;100.00;61774.03;5012676;28;20099;-71
2022/05/10 09:37:33;;;;;;;13.68;10.68;;;;;;;-139.48;100.00;61774.03;5013559;28;20140;-72
2022/05/10 09:40:17;;;;;;;12.93;11.27;;;;;;;-139.48;100.00;61774.03;5012823;28;20080;-73
2022/05/10 09:43:22;;;;;;;;;;;;;;;-139.48;100.00;61774.03;5013899;28;20078;-72
2022/05/10 09:46:12;;;;;;;;;;;;;;;-139.48;100.00;61774.03;5013876;28;19963;-72
2022/05/10 09:48:57;;;;;;;13.40;11.98;;;;;;;-139.48;100.00;61774.03;5013504;28;19964;-72
2022/05/10 09:51:45;;;;;;;17.55;10.60;;;;;;;-139.48;100.00;61774.03;5012177;28;20045;-71
2022/05/10 09:54:40;;;;;;;12.57;11.20;;;;;;;-139.48;100.00;61774.03;5012151;28;20049;-72
2022/05/10 09:57:29;;;;;;;15.02;11.43;;;;;;;-139.48;100.00;61774.03;5012404;28;20151;-72
2022/05/10 10:00:15;;;;;;;14.57;11.45;;;;;;;-139.48;100.00;61774.03;5012549;28;20040;-72
2022/05/10 10:02:59;;;;;;;14.07;11.18;;;;;;;-139.48;100.00;61774.03;5012122;28;20056;-72
2022/05/10 10:05:45;;;;;;;17.40;9.68;;;;;;;-139.48;100.00;61774.03;4998488;28;20133;-72
2022/05/10 10:08:38;;;;;;;15.57;10.75;;;;;;;-139.48;100.00;61774.03;5013316;28;20052;-71
2022/05/10 10:11:22;;;;;;;11.88;9.85;;;;;;;-139.48;100.00;61774.03;5012180;28;20107;-73
2022/05/10 10:14:07;;;;;;;;;;;;;;;-139.48;100.00;61774.03;5013362;28;20096;-73
2022/05/10 10:16:53;;;;;;;15.25;10.98;;;;;;;-139.48;100.00;61774.03;5012208;28;19940;-72
2022/05/10 10:19:45;;;;;;;10.85;8.95;;;;;;;-139.48;100.00;61774.03;5012053;28;20056;-72
2022/05/10 10:22:51;;;;;;;11.77;9.60;;;;;;;-139.48;100.00;61774.03;5013096;28;20410;-73
2022/05/10 10:25:40;;;;;;;11.10;9.98;;;;;;;-139.48;100.00;61774.03;5011652;28;20053;-73
2022/05/10 10:28:38;;;;;;;13.27;9.40;;;;;;;-139.48;100.00;61774.03;5000637;28;20493;-72
2022/05/10 10:31:29;;;;;;;12.07;10.00;;;;;;;-139.48;100.00;61774.03;5015722;28;20123;-72
2022/05/10 10:34:24;;;;;;;13.27;8.98;;;;;;;-139.48;100.00;61774.03;5015535;28;20052;-72
2022/05/10 10:37:11;;;;;;;12.52;8.57;;;;;;;-139.48;100.00;61774.03;5016594;28;20076;-72
2022/05/10 10:40:06;;;;;;;8.93;8.00;;;;;;;-139.48;100.00;61774.03;5001311;28;20104;-72
2022/05/10 10:43:20;;;;;;;11.27;8.25;;;;;;;-139.48;100.00;61774.03;5016491;28;20061;-73
2022/05/10 10:46:15;;;;;;;12.45;8.48;;;;;;;-139.48;100.00;61774.03;5016065;28;20129;-72
2022/05/10 10:49:13;;;;;;;9.40;7.53;;;;;;;-139.48;100.00;61774.03;5015083;28;20122;-72
2022/05/10 10:51:57;;;;;;;9.35;7.72;;;;;;;-139.48;100.00;61774.03;5016285;28;20048;-72
2022/05/10 10:54:42;;;;;;;11.68;7.88;;;;;;;-139.48;100.00;61774.03;5016026;28;20119;-72
2022/05/10 10:57:25;;;;;;;8.57;7.72;;;;;;;-139.48;100.00;61774.03;5015141;28;20131;-72
2022/05/10 11:00:13;;;;;;;11.65;8.10;;;;;;;-139.48;100.00;61774.03;5016115;28;20068;-72
2022/05/10 11:03:01;;;;;;;8.43;7.18;;;;;;;-139.48;100.00;61774.03;5001225;28;20471;-72
2022/05/10 11:05:56;;;;;;;10.50;7.70;;;;;;;-139.48;100.00;61774.03;5014633;28;20108;-72
2022/05/10 11:08:49;;;;;;;14.18;7.40;;;;;;;-139.48;100.00;61774.03;5015965;28;20053;-71
2022/05/10 11:11:47;;;;;;;8.27;6.65;;;;;;;-139.48;100.00;61774.03;5000857;28;20418;-72
2022/05/10 11:14:52;;;;;;;8.30;6.68;;;;;;;-139.48;100.00;61774.03;5014636;28;20053;-72
2022/05/10 11:17:58;;;;;;;9.15;7.60;;;;;;;-139.48;100.00;61774.03;5015843;28;20120;-73
2022/05/10 11:21:13;;;;;;;9.85;7.35;;;;;;;-139.48;100.00;61774.03;5014777;28;20060;-73
2022/05/10 11:24:32;;;;;;;8.88;7.10;;;;;;;-139.48;100.00;61774.03;5014476;28;20127;-72
2022/05/10 11:27:34;;;;;;;7.15;6.43;;;;;;;-139.48;100.00;61774.03;5014631;28;20056;-71
2022/05/10 11:30:22;;;;;;;9.25;7.00;;;;;;;-139.48;100.00;61774.03;5014436;28;20048;-71
2022/05/10 11:33:29;;;;;;;6.65;6.05;;;;;;;-139.48;100.00;61774.03;5014396;28;20138;-71
2022/05/10 11:36:31;;;;;;;6.78;5.97;;;;;;;-139.48;100.00;61774.03;5015365;28;20160;-72
2022/05/10 11:39:22;;;;;;;7.95;6.55;;;;;;;-139.48;100.00;61774.03;5013666;28;20096;-72
2022/05/10 11:42:24;;;;;;;11.38;6.28;;;;;;;-139.48;100.00;61774.03;5014014;28;20060;-72
2022/05/10 11:45:34;;;;;;;10.98;6.70;;;;;;;-139.48;100.00;61774.03;5014876;28;20048;-72
2022/05/10 11:48:36;;;;;;;14.32;6.63;;;;;;;-139.48;100.00;61774.03;5014883;28;20145;-73
2022/05/10 11:51:42;;;;;;;8.32;5.88;;;;;;;-139.48;100.00;61774.03;5013934;28;20121;-71
2022/05/10 11:54:36;;;;;;;7.85;6.25;;;;;;;-139.48;100.00;61774.03;5014764;28;20049;-72
2022/05/10 11:57:22;;;;;;;7.18;6.18;;;;;;;-139.48;100.00;61774.03;5014877;28;20112;-72
2022/05/10 12:00:50;;;;;;;12.13;6.70;;;;;;;-139.48;100.00;61774.03;5014963;28;20053;-73
2022/05/10 12:03:41;;;;;;;11.48;6.43;;;;;;;-139.48;100.00;61774.03;4974022;28;20094;-73
2022/05/10 12:06:25;;;;;;;9.68;6.70;;;;;;;-139.48;100.00;61774.03;5014542;28;20053;-73
2022/05/10 12:09:13;;;;;;;7.95;6.50;;;;;;;-139.48;100.00;61774.03;5014554;28;20460;-73
2022/05/10 12:11:57;;;;;;;6.50;5.85;;;;;;;-139.48;100.00;61774.03;5013498;28;20578;-72
2022/05/10 12:21:43;;;;;;;10.05;7.00;;;;;;;-139.48;100.00;61774.03;5014333;28;20052;-72
2022/05/10 12:24:28;;;;;;;7.72;6.00;;;;;;;-139.48;100.00;61774.03;4973155;28;20086;-71
2022/05/10 12:27:13;;;;;;;9.10;6.10;;;;;;;-139.48;100.00;61774.03;5013233;28;20080;-72
2022/05/10 12:29:56;;;;;;;10.00;6.30;;;;;;;-139.48;100.00;61774.03;5013184;28;20088;-72
2022/05/10 12:32:42;;;;;;;8.27;6.13;;;;;;;-139.48;100.00;61774.03;5014093;28;20425;-72
2022/05/10 12:35:50;;;;;;;7.95;6.43;;;;;;;-139.48;100.00;61774.03;5014100;28;20188;-73
2022/05/10 12:38:49;;;;;;;7.47;6.43;;;;;;;-139.48;100.00;61774.03;5013154;28;20045;-72
2022/05/10 12:41:52;;;;;;;6.93;5.95;;;;;;;-139.48;100.00;61774.03;4999325;28;20104;-72
2022/05/10 12:44:50;;;;;;;8.27;5.55;;;;;;;-139.48;100.00;61774.03;5013125;28;20045;-72
2022/05/10 12:48:03;;;;;;;6.00;5.50;;;;;;;-139.48;100.00;61774.03;5012953;28;20049;-73
2022/05/10 12:51:13;;;;;;;6.57;5.45;;;;;;;-139.48;100.00;61774.03;5013359;28;20072;-72
2022/05/10 12:53:58;;;;;;;7.50;6.10;;;;;;;-139.48;100.00;61774.03;5012955;28;20049;-72
2022/05/10 12:56:42;;;;;;;9.30;5.57;;;;;;;-139.48;100.00;61774.03;5014049;28;20095;-73
2022/05/10 12:59:27;;;;;;;8.57;5.60;;;;;;;-139.48;100.00;61774.03;5013811;28;20053;-72